Palisade, Nebraska
Current Conditions -  °F | °C
As of 11:53 AM on Sunday 21 Dec 2014 (Local Time) from KIML Reporting Station
Overcast Overcast  
Wind Chill: 38°   Ceiling: 10000
Heat Index: 42°   Visibility: 10mi
Dew Point: 28°   Wind: 7mph
Humidity: 58%   Direction: 220°SW
Pressure: 29.63"   Gusts: NA
Location:  40.35°N, 101.11°W
Report Text: KIML 211753Z AUTO 22006KT 10SM OVC100 06/M02 A2963 RMK AO2 SLP050 T00561022 10056 21050 58025
Loading
Personal Weather Stations






























Interactive Weather Map New forecast layout! Learn more

10-Day Weather Forecast

Advertisements
Track Severe Weather on mobile